Time;durP1;ratioP1;P1;durP2;ratioP2;P2;SDS_P1;SDS_P2;PMS_P1;PMS_P2;Temp;Humidity;BMP_temperature;BMP_pressure;BME280_temperature;BME280_humidity;BME280_pressure;Samples;Min_cycle;Max_cycle;Signal;HPM_P1;HPM_P2
2023/01/15 00:01:27;;;;;;;15.63;8.63;;;22.20;61.40;;;;;;5073122;28;20037;-78
2023/01/15 00:03:54;;;;;;;14.10;9.18;;;22.30;61.70;;;;;;5071568;28;20469;-77
2023/01/15 00:06:22;;;;;;;16.98;9.57;;;22.20;61.30;;;;;;5071515;28;20419;-78
2023/01/15 00:08:49;;;;;;;16.48;9.48;;;22.30;61.50;;;;;;5071580;28;20440;-78
2023/01/15 00:11:15;;;;;;;13.95;9.02;;;22.30;61.40;;;;;;5070838;28;20040;-77
2023/01/15 00:13:42;;;;;;;17.40;9.85;;;22.20;61.30;;;;;;5071520;28;20481;-77
2023/01/15 00:16:11;;;;;;;15.18;8.27;;;22.40;61.70;;;;;;5073856;28;20024;-77
2023/01/15 00:18:37;;;;;;;16.25;9.23;;;22.30;61.50;;;;;;5071187;28;20033;-77
2023/01/15 00:21:06;;;;;;;14.95;8.82;;;22.30;61.40;;;;;;5053195;28;20036;-77
2023/01/15 00:29:05;;;;;;;15.40;9.40;;;22.30;61.80;;;;;;5091508;28;20024;-78
2023/01/15 00:31:34;;;;;;;16.58;9.70;;;22.10;61.90;;;;;;5068799;28;20044;-77
2023/01/15 00:34:00;;;;;;;14.43;9.18;;;22.00;61.90;;;;;;5053389;28;20054;-77
2023/01/15 00:36:26;;;;;;;18.95;9.80;;;22.00;62.10;;;;;;5071221;28;20036;-76
2023/01/15 00:38:53;;;;;;;18.58;9.93;;;21.90;62.30;;;;;;5071188;28;20115;-77
2023/01/15 00:41:19;;;;;;;18.02;9.55;;;21.90;62.40;;;;;;5052918;28;20119;-78
2023/01/15 00:43:45;;;;;;;18.75;9.65;;;21.90;62.40;;;;;;5082164;28;20028;-77
2023/01/15 00:46:12;;;;;;;14.27;8.13;;;21.90;62.30;;;;;;5090355;28;20031;-77
2023/01/15 00:48:39;;;;;;;12.90;7.70;;;21.80;62.60;;;;;;5073543;28;20036;-76
2023/01/15 00:51:05;;;;;;;15.10;8.48;;;22.00;62.50;;;;;;5072984;28;20656;-77
2023/01/15 00:53:32;;;;;;;13.18;8.02;;;21.90;62.60;;;;;;5091400;28;20127;-78
2023/01/15 00:55:58;;;;;;;13.85;7.78;;;22.00;62.40;;;;;;5091094;28;20033;-77
2023/01/15 00:58:24;;;;;;;14.07;7.63;;;21.90;62.20;;;;;;5075495;28;20097;-80
2023/01/15 01:00:57;;;;;;;11.05;6.90;;;22.00;61.60;;;;;;5074971;28;20028;-80
2023/01/15 01:03:23;;;;;;;;;;;22.00;62.00;;;;;;5095492;28;20036;-79
2023/01/15 01:05:49;;;;;;;12.65;7.38;;;22.00;61.90;;;;;;5076804;28;19908;-80
2023/01/15 01:08:15;;;;;;;12.02;6.90;;;22.00;62.10;;;;;;5076753;28;20051;-80
2023/01/15 01:10:41;;;;;;;9.15;6.18;;;22.00;62.10;;;;;;5076834;28;20046;-80
2023/01/15 01:13:08;;;;;;;12.60;7.35;;;22.00;62.10;;;;;;5095172;28;20036;-79
2023/01/15 01:15:37;;;;;;;12.38;7.35;;;22.10;61.70;;;;;;5094467;28;20028;-80
2023/01/15 01:18:04;;;;;;;14.60;7.57;;;22.10;61.70;;;;;;5093707;28;20460;-80
2023/01/15 01:20:32;;;;;;;14.40;7.63;;;22.00;61.80;;;;;;5076533;28;20032;-80
2023/01/15 01:22:58;;;;;;;11.65;6.88;;;22.10;62.00;;;;;;5094312;28;20036;-80
2023/01/15 01:25:24;;;;;;;12.82;8.00;;;22.00;61.50;;;;;;5076081;28;20028;-79
2023/01/15 01:27:50;;;;;;;10.77;7.03;;;22.10;61.70;;;;;;5094207;28;20036;-79
2023/01/15 01:30:16;;;;;;;13.88;6.95;;;21.90;62.20;;;;;;5069082;28;20140;-80
2023/01/15 01:32:45;;;;;;;13.23;8.23;;;21.90;61.70;;;;;;5088998;28;20036;-80
2023/01/15 01:35:11;;;;;;;13.25;7.53;;;21.90;61.80;;;;;;5094190;28;20036;-80
2023/01/15 01:37:37;;;;;;;14.93;7.35;;;21.90;62.10;;;;;;5094480;28;20346;-80
2023/01/15 01:40:04;;;;;;;13.40;7.03;;;21.80;61.80;;;;;;5075835;28;20040;-80
2023/01/15 01:42:30;;;;;;;13.20;7.28;;;21.70;62.20;;;;;;5075967;28;20046;-80
2023/01/15 01:45:12;;;;;;;13.88;7.18;;;21.80;62.10;;;;;;5059418;28;20036;-77
2023/01/15 01:47:39;;;;;;;13.18;7.18;;;21.70;62.00;;;;;;5094506;28;20109;-79
2023/01/15 01:50:09;;;;;;;12.40;7.50;;;21.80;62.20;;;;;;5093811;28;20032;-80
2023/01/15 01:53:03;;;;;;;10.13;6.78;;;21.60;61.90;;;;;;5093718;28;20097;-80
2023/01/15 01:55:32;;;;;;;11.75;6.90;;;21.70;62.20;;;;;;5041012;28;20040;-80
2023/01/15 01:58:00;;;;;;;10.65;6.38;;;21.80;62.00;;;;;;5093867;28;20043;-80
2023/01/15 02:00:29;;;;;;;13.40;7.45;;;21.70;61.80;;;;;;5071805;28;20056;-79
2023/01/15 02:02:55;;;;;;;12.35;6.72;;;21.80;61.90;;;;;;5093627;28;20411;-79
2023/01/15 02:05:32;;;;;;;13.18;7.18;;;21.80;61.40;;;;;;5093530;28;20043;-80
2023/01/15 02:07:59;;;;;;;16.27;7.80;;;21.80;61.50;;;;;;5093621;28;20039;-79
2023/01/15 02:10:27;;;;;;;12.30;6.85;;;21.90;61.70;;;;;;5074225;28;20047;-80
2023/01/15 02:13:07;;;;;;;12.40;7.03;;;21.90;61.50;;;;;;5033340;28;20052;-79
2023/01/15 02:15:42;;;;;;;12.48;7.00;;;21.90;61.60;;;;;;5013823;28;20141;-79
2023/01/15 02:18:22;;;;;;;14.60;6.60;;;21.80;61.70;;;;;;5030732;28;20042;-80
2023/01/15 02:21:14;;;;;;;11.77;7.07;;;21.90;61.70;;;;;;5014213;28;20525;-80
2023/01/15 02:23:59;;;;;;;12.88;7.43;;;21.80;61.40;;;;;;5013943;28;20169;-79
2023/01/15 02:26:34;;;;;;;10.82;6.82;;;21.80;61.40;;;;;;5014489;28;20489;-79
2023/01/15 02:29:01;;;;;;;12.05;6.60;;;21.80;61.50;;;;;;5018430;28;20046;-80
2023/01/15 02:31:37;;;;;;;10.77;6.47;;;21.70;61.60;;;;;;5014371;28;20077;-80
2023/01/15 02:34:19;;;;;;;13.07;6.85;;;21.70;61.70;;;;;;5013642;28;20057;-80
2023/01/15 02:36:54;;;;;;;13.02;7.22;;;21.60;62.00;;;;;;5046970;28;20090;-80
2023/01/15 02:39:27;;;;;;;12.90;7.07;;;21.60;61.70;;;;;;5014033;28;20044;-79
2023/01/15 02:41:58;;;;;;;13.95;7.13;;;21.50;61.90;;;;;;5013782;28;20040;-81
2023/01/15 02:44:31;;;;;;;12.23;7.35;;;21.50;62.00;;;;;;5054996;28;20044;-80
2023/01/15 02:47:00;;;;;;;13.80;7.25;;;21.40;61.90;;;;;;5074787;28;20056;-80
2023/01/15 02:49:28;;;;;;;10.30;6.75;;;21.50;62.00;;;;;;5063251;28;20036;-77
2023/01/15 02:52:08;;;;;;;11.05;6.38;;;21.50;62.00;;;;;;5054720;28;20039;-80
2023/01/15 02:54:45;;;;;;;13.02;7.03;;;21.50;62.10;;;;;;5054158;28;20043;-80
2023/01/15 02:57:14;;;;;;;15.80;6.95;;;21.50;61.90;;;;;;5053569;28;20028;-79
2023/01/15 02:59:44;;;;;;;13.18;7.15;;;21.50;61.80;;;;;;5057944;28;20157;-80
2023/01/15 03:02:15;;;;;;;12.02;6.65;;;21.40;61.60;;;;;;5053259;28;20029;-80
2023/01/15 03:04:57;;;;;;;10.60;6.35;;;21.50;61.60;;;;;;5053827;28;20543;-80
2023/01/15 03:07:38;;;;;;;12.25;6.05;;;21.60;61.60;;;;;;5037190;28;20036;-80
2023/01/15 03:10:06;;;;;;;10.88;6.18;;;21.50;61.40;;;;;;5071261;28;20048;-80
2023/01/15 03:13:01;;;;;;;10.90;6.40;;;21.50;61.60;;;;;;5092291;28;20074;-80
2023/01/15 03:18:35;;;;;;;11.82;6.70;;;21.70;61.20;;;;;;5054133;28;20028;-80
2023/01/15 03:21:07;;;;;;;11.88;7.00;;;21.50;61.10;;;;;;5053642;28;20044;-80
2023/01/15 03:23:39;;;;;;;12.75;6.07;;;21.60;61.20;;;;;;5054338;28;20080;-80
2023/01/15 03:26:05;;;;;;;11.75;6.40;;;21.50;61.00;;;;;;5054146;28;20035;-80
2023/01/15 03:28:38;;;;;;;12.02;5.75;;;21.50;61.30;;;;;;5064758;28;20036;-80
2023/01/15 03:31:04;;;;;;;9.82;5.80;;;21.50;61.10;;;;;;5049154;28;20056;-79
2023/01/15 03:33:30;;;;;;;9.23;5.60;;;21.60;61.10;;;;;;5032569;28;20040;-80
2023/01/15 03:35:59;;;;;;;9.82;5.63;;;21.40;61.10;;;;;;5032484;28;20040;-81
2023/01/15 03:38:41;;;;;;;8.45;4.88;;;21.50;61.10;;;;;;5026758;28;20033;-80
2023/01/15 03:42:08;;;;;;;11.82;6.13;;;21.40;61.30;;;;;;5029179;28;20041;-80
2023/01/15 03:45:02;;;;;;;9.20;4.93;;;21.30;61.40;;;;;;5009141;28;20153;-80
2023/01/15 03:47:58;;;;;;;8.15;4.63;;;21.30;61.80;;;;;;5009560;28;20333;-80
2023/01/15 03:50:36;;;;;;;8.02;4.57;;;21.30;61.60;;;;;;5009540;28;20100;-81
2023/01/15 03:53:31;;;;;;;8.32;5.07;;;21.40;61.20;;;;;;4988433;28;20125;-80
2023/01/15 03:56:05;;;;;;;7.75;4.80;;;21.40;61.10;;;;;;4973796;28;20558;-80
2023/01/15 03:58:49;;;;;;;6.45;4.38;;;21.30;61.30;;;;;;4983221;28;20049;-80
2023/01/15 04:01:26;;;;;;;9.73;5.22;;;21.40;61.30;;;;;;4993342;28;20046;-80
2023/01/15 04:03:54;;;;;;;7.50;4.75;;;21.40;61.10;;;;;;5009366;28;20046;-81
2023/01/15 04:06:25;;;;;;;8.95;4.93;;;21.40;61.30;;;;;;5009425;28;20070;-81
2023/01/15 04:08:52;;;;;;;11.10;5.22;;;21.50;61.10;;;;;;5009306;28;20394;-80
2023/01/15 04:11:26;;;;;;;7.38;4.90;;;21.40;61.10;;;;;;5008930;28;20133;-80
2023/01/15 04:13:58;;;;;;;11.88;4.90;;;21.40;61.10;;;;;;5008200;28;20378;-79
2023/01/15 04:16:31;;;;;;;7.88;4.80;;;21.40;61.00;;;;;;4993042;28;20609;-80
2023/01/15 04:18:58;;;;;;;9.38;5.35;;;21.40;60.90;;;;;;5058277;28;20098;-81
2023/01/15 04:21:25;;;;;;;7.78;5.00;;;21.50;61.00;;;;;;5053519;28;20530;-80
2023/01/15 04:23:51;;;;;;;10.48;5.22;;;21.40;61.00;;;;;;5082417;28;20034;-81
2023/01/15 04:26:17;;;;;;;9.85;5.43;;;21.40;60.70;;;;;;5091675;28;20059;-80
2023/01/15 04:28:43;;;;;;;7.15;4.78;;;21.40;60.60;;;;;;5090756;28;20713;-79
2023/01/15 04:31:09;;;;;;;9.73;5.03;;;21.30;60.80;;;;;;5091286;28;20115;-81
2023/01/15 04:33:35;;;;;;;7.60;4.85;;;21.30;60.80;;;;;;5089296;28;20476;-81
2023/01/15 04:36:03;;;;;;;9.23;5.93;;;21.30;60.70;;;;;;5075651;28;20394;-80
2023/01/15 04:38:29;;;;;;;10.90;5.90;;;21.20;60.80;;;;;;5075143;28;20089;-81
2023/01/15 04:46:27;;;;;;;9.77;5.05;;;21.20;61.20;;;;;;5095629;28;20035;-80
2023/01/15 04:48:53;;;;;;;8.35;4.28;;;21.10;61.30;;;;;;5073938;28;20027;-79
2023/01/15 04:51:19;;;;;;;10.32;5.47;;;21.10;61.70;;;;;;5095110;28;20154;-79
2023/01/15 04:53:45;;;;;;;9.15;5.95;;;21.30;60.90;;;;;;5094979;28;20024;-80
2023/01/15 04:56:11;;;;;;;8.90;4.60;;;21.20;60.80;;;;;;5095125;28;20028;-80
2023/01/15 04:58:38;;;;;;;11.85;5.43;;;21.10;61.00;;;;;;5094301;28;20071;-80
2023/01/15 05:01:13;;;;;;;7.05;5.00;;;21.20;60.40;;;;;;5095034;28;20523;-81
2023/01/15 05:03:39;;;;;;;10.20;5.38;;;21.20;60.60;;;;;;5094113;28;20034;-80
2023/01/15 05:06:05;;;;;;;7.95;4.75;;;21.20;60.90;;;;;;5094730;28;20519;-81
2023/01/15 05:08:32;;;;;;;7.00;4.85;;;21.20;60.50;;;;;;5094967;28;20036;-81
2023/01/15 05:11:02;;;;;;;7.13;4.72;;;21.20;60.70;;;;;;5076321;28;20056;-80
2023/01/15 05:13:31;;;;;;;11.10;5.25;;;21.30;60.30;;;;;;5089698;28;20040;-79
2023/01/15 05:16:18;;;;;;;10.45;5.57;;;21.20;60.30;;;;;;5074594;28;20127;-80
2023/01/15 05:18:45;;;;;;;9.02;5.55;;;21.30;60.20;;;;;;5074618;28;20047;-80
2023/01/15 05:21:25;;;;;;;11.00;6.15;;;21.30;60.30;;;;;;5074271;28;20036;-80
2023/01/15 05:23:54;;;;;;;8.60;5.60;;;21.30;60.30;;;;;;5074062;28;20024;-79
2023/01/15 05:26:21;;;;;;;8.38;5.53;;;21.30;60.00;;;;;;5074032;28;20052;-81
2023/01/15 05:28:47;;;;;;;8.10;5.20;;;21.20;60.00;;;;;;5085204;28;20081;-80
2023/01/15 05:31:17;;;;;;;9.05;5.03;;;21.20;60.20;;;;;;5094407;28;20388;-80
2023/01/15 05:33:45;;;;;;;9.43;5.45;;;21.20;60.00;;;;;;5094404;28;20040;-79
2023/01/15 05:36:14;;;;;;;10.73;5.65;;;21.10;60.10;;;;;;5076254;28;20069;-80
2023/01/15 05:38:41;;;;;;;11.38;6.00;;;21.20;60.20;;;;;;5094426;28;20024;-81
2023/01/15 05:43:55;;;;;;;8.90;5.07;;;21.20;60.00;;;;;;5060504;28;20067;-80
2023/01/15 05:46:22;;;;;;;9.43;5.05;;;21.10;60.20;;;;;;5073670;28;20025;-80
2023/01/15 05:48:48;;;;;;;7.22;5.03;;;21.20;60.10;;;;;;5074047;28;20366;-81
2023/01/15 05:51:14;;;;;;;9.70;5.25;;;21.10;60.30;;;;;;5073672;28;20031;-80
2023/01/15 05:53:40;;;;;;;9.35;5.32;;;21.00;60.30;;;;;;5049139;28;20086;-81
2023/01/15 05:56:07;;;;;;;6.68;4.30;;;21.10;60.20;;;;;;5093983;28;20020;-80
2023/01/15 05:58:33;;;;;;;6.03;4.40;;;21.00;60.40;;;;;;5092961;28;20465;-80
2023/01/15 06:00:59;;;;;;;5.75;4.60;;;21.00;60.00;;;;;;5092874;28;20066;-80
2023/01/15 06:03:26;;;;;;;7.50;4.65;;;21.10;59.80;;;;;;5093918;28;20036;-81
2023/01/15 06:05:53;;;;;;;7.45;4.93;;;21.10;59.70;;;;;;5093888;28;20118;-81
2023/01/15 06:08:19;;;;;;;7.22;4.93;;;21.10;59.60;;;;;;5093680;28;20494;-80
2023/01/15 06:10:46;;;;;;;8.75;4.93;;;21.10;59.60;;;;;;5093615;28;20076;-81
2023/01/15 06:13:12;;;;;;;8.00;4.85;;;21.20;59.40;;;;;;5091513;28;20027;-79
2023/01/15 06:15:39;;;;;;;7.80;4.00;;;21.10;59.30;;;;;;5051743;28;20041;-80
2023/01/15 06:18:05;;;;;;;8.02;4.90;;;21.10;59.10;;;;;;5072920;28;20032;-80
2023/01/15 06:20:31;;;;;;;8.75;4.88;;;21.20;59.20;;;;;;5072930;28;20033;-80
2023/01/15 06:22:57;;;;;;;9.60;5.18;;;21.10;58.90;;;;;;5072897;28;20485;-81
2023/01/15 06:25:23;;;;;;;9.88;5.80;;;21.20;59.00;;;;;;5077438;28;20115;-80
2023/01/15 06:27:49;;;;;;;10.68;5.35;;;21.20;58.90;;;;;;5071344;28;20103;-79
2023/01/15 06:30:15;;;;;;;9.52;4.95;;;21.20;58.60;;;;;;5092872;28;20035;-80
2023/01/15 06:32:41;;;;;;;7.32;4.38;;;21.20;58.70;;;;;;5073791;28;20106;-80
2023/01/15 06:35:07;;;;;;;9.63;5.10;;;21.20;58.90;;;;;;5092777;28;20527;-80
2023/01/15 06:37:33;;;;;;;9.50;4.82;;;21.20;58.20;;;;;;5057048;28;20068;-80
2023/01/15 06:39:59;;;;;;;7.28;4.75;;;21.20;58.20;;;;;;5080964;28;20036;-77
2023/01/15 06:47:57;;;;;;;8.70;6.57;;;21.20;49.20;;;;;;5091929;28;20034;-76
2023/01/15 06:50:24;;;;;;;7.25;5.85;;;21.30;51.20;;;;;;5074263;28;20052;-75
2023/01/15 06:52:50;;;;;;;7.43;5.45;;;21.30;49.70;;;;;;5054286;28;20094;-76
2023/01/15 06:55:17;;;;;;;8.52;6.95;;;21.30;48.60;;;;;;5072622;28;20038;-75
2023/01/15 06:57:44;;;;;;;7.15;3.80;;;21.40;48.40;;;;;;5082251;28;20050;-81
2023/01/15 07:00:11;;;;;;;6.53;4.50;;;21.30;47.70;;;;;;5074607;28;20477;-79
2023/01/15 07:02:40;;;;;;;5.85;4.20;;;21.30;46.80;;;;;;5092606;28;20028;-78
2023/01/15 07:05:06;;;;;;;7.22;4.25;;;21.30;46.00;;;;;;5092199;28;20525;-80
2023/01/15 07:07:33;;;;;;;6.72;4.03;;;21.30;47.40;;;;;;5092307;28;20039;-75
2023/01/15 07:09:59;;;;;;;0.60;0.57;;;21.50;48.60;;;;;;5092524;28;20055;-77
2023/01/15 07:12:26;;;;;;;1.70;1.17;;;21.80;60.00;;;;;;5091325;28;20097;-77
2023/01/15 07:14:52;;;;;;;9.20;3.67;;;22.00;63.20;;;;;;5074257;28;20476;-77
2023/01/15 07:17:18;;;;;;;0.95;0.95;;;22.20;61.70;;;;;;5091535;28;20028;-78
2023/01/15 07:19:45;;;;;;;3.53;2.58;;;22.50;63.70;;;;;;5087868;28;20140;-76
2023/01/15 07:22:11;;;;;;;1.15;1.10;;;22.50;59.60;;;;;;5087528;28;20468;-75
2023/01/15 07:24:37;;;;;;;6.82;4.13;;;22.70;55.50;;;;;;5060105;28;20107;-76
2023/01/15 07:27:04;;;;;;;8.70;4.47;;;22.60;53.30;;;;;;5060722;28;20185;-74
2023/01/15 07:29:30;;;;;;;5.78;3.17;;;22.60;55.30;;;;;;5071843;28;20360;-76
2023/01/15 07:31:56;;;;;;;5.00;3.67;;;22.60;52.60;;;;;;5039110;28;20385;-77
2023/01/15 07:34:23;;;;;;;4.45;3.55;;;22.50;52.40;;;;;;5091414;28;20114;-76
2023/01/15 07:36:48;;;;;;;3.65;2.55;;;22.50;53.60;;;;;;5090692;28;20033;-82
2023/01/15 07:39:15;;;;;;;5.97;3.90;;;22.60;53.90;;;;;;5088015;28;20032;-81
2023/01/15 07:50:34;;;;;;;5.88;4.03;;;22.40;55.50;;;;;;5090368;28;20032;-77
2023/01/15 07:52:59;;;;;;;5.80;3.40;;;22.30;56.80;;;;;;4970482;28;20050;-78
2023/01/15 07:55:25;;;;;;;7.35;3.92;;;22.20;57.10;;;;;;4980544;28;20054;-78
2023/01/15 07:57:52;;;;;;;5.38;3.65;;;22.30;57.30;;;;;;4989516;28;20065;-77
2023/01/15 08:00:21;;;;;;;4.93;3.90;;;22.20;57.50;;;;;;4989828;28;20034;-76
2023/01/15 08:02:49;;;;;;;4.88;2.95;;;22.30;57.70;;;;;;4989556;28;20390;-76
2023/01/15 08:05:16;;;;;;;6.55;3.70;;;22.40;57.50;;;;;;4972955;28;20054;-77
2023/01/15 08:07:42;;;;;;;5.25;3.60;;;22.40;57.10;;;;;;4991381;28;20041;-76
2023/01/15 08:10:11;;;;;;;4.00;3.03;;;22.30;57.70;;;;;;4962627;28;20089;-78
2023/01/15 08:15:22;;;;;;;5.70;3.53;;;22.40;58.40;;;;;;4993315;28;20392;-75
2023/01/15 08:17:49;;;;;;;3.35;2.55;;;22.20;58.50;;;;;;4993335;28;20089;-76
2023/01/15 08:20:20;;;;;;;4.78;3.00;;;22.20;59.20;;;;;;4993453;28;20042;-77
2023/01/15 08:22:47;;;;;;;6.15;3.47;;;22.20;59.90;;;;;;4993544;28;20081;-77
2023/01/15 08:25:16;;;;;;;5.18;3.60;;;22.10;60.20;;;;;;4993568;28;20203;-75
2023/01/15 08:27:42;;;;;;;4.68;3.10;;;22.10;60.40;;;;;;4993274;28;20045;-76
2023/01/15 08:30:15;;;;;;;4.45;3.50;;;22.00;60.80;;;;;;5045291;28;20090;-74
2023/01/15 08:32:41;;;;;;;10.63;4.43;;;22.00;55.90;;;;;;5074550;28;20071;-75
2023/01/15 08:35:08;;;;;;;6.10;3.70;;;22.30;57.90;;;;;;5074665;28;20091;-76
2023/01/15 08:37:34;;;;;;;5.55;3.10;;;22.60;50.10;;;;;;5091666;28;20481;-75
2023/01/15 08:40:00;;;;;;;4.60;3.40;;;22.60;45.90;;;;;;5076911;28;20111;-76
2023/01/15 08:42:27;;;;;;;4.40;3.08;;;22.60;44.40;;;;;;5094234;28;20151;-75
2023/01/15 08:44:53;;;;;;;4.80;3.00;;;22.80;45.10;;;;;;5091600;28;20400;-75
2023/01/15 08:47:19;;;;;;;4.85;3.25;;;22.70;44.00;;;;;;5094914;28;20039;-74
2023/01/15 08:49:49;;;;;;;4.00;3.38;;;22.60;44.70;;;;;;5094997;28;20039;-76
2023/01/15 08:52:15;;;;;;;4.82;3.10;;;22.80;45.50;;;;;;5092546;28;20036;-75
2023/01/15 08:54:42;;;;;;;4.85;2.88;;;22.70;55.10;;;;;;5035024;28;20044;-75
2023/01/15 08:57:10;;;;;;;4.15;3.67;;;22.70;55.90;;;;;;5085838;28;20436;-75
2023/01/15 08:59:36;;;;;;;4.57;3.28;;;22.80;56.40;;;;;;5090925;28;20380;-76
2023/01/15 09:02:02;;;;;;;4.13;3.13;;;22.90;56.80;;;;;;5091263;28;20044;-75
2023/01/15 09:04:28;;;;;;;5.22;3.45;;;22.80;56.90;;;;;;5092244;28;20178;-76
2023/01/15 09:06:54;;;;;;;2.92;2.28;;;22.80;57.30;;;;;;5091306;28;20028;-80
2023/01/15 09:09:20;;;;;;;3.95;3.08;;;22.80;57.50;;;;;;5074879;28;20035;-74
2023/01/15 09:11:46;;;;;;;5.30;3.05;;;23.00;57.50;;;;;;5093483;28;20604;-74
2023/01/15 09:14:14;;;;;;;4.30;2.92;;;23.00;57.70;;;;;;5076390;28;20036;-75
2023/01/15 09:16:40;;;;;;;5.50;3.15;;;22.90;58.10;;;;;;5076070;28;20080;-80
2023/01/15 09:19:07;;;;;;;4.22;2.95;;;23.00;57.60;;;;;;5093048;28;20036;-76
2023/01/15 09:21:33;;;;;;;4.25;2.60;;;23.00;57.50;;;;;;5094391;28;20036;-76
2023/01/15 09:23:59;;;;;;;2.42;1.73;;;22.90;57.70;;;;;;5094476;28;20665;-77
2023/01/15 09:26:33;;;;;;;5.47;2.72;;;22.80;57.40;;;;;;5093537;28;20504;-77
2023/01/15 09:29:00;;;;;;;2.65;2.20;;;22.80;57.30;;;;;;5059316;28;20036;-77
2023/01/15 09:31:26;;;;;;;6.07;2.63;;;22.90;57.10;;;;;;5094250;28;20114;-77
2023/01/15 09:33:52;;;;;;;3.95;2.78;;;22.70;57.00;;;;;;5093978;28;20036;-77
2023/01/15 09:36:28;;;;;;;3.70;2.58;;;22.60;57.40;;;;;;5094062;28;20086;-77
2023/01/15 09:38:55;;;;;;;4.63;2.58;;;22.40;58.60;;;;;;5093803;28;20032;-77
2023/01/15 09:44:10;;;;;;;3.60;2.58;;;22.50;58.30;;;;;;5093952;28;20107;-77
2023/01/15 09:46:55;;;;;;;4.57;2.92;;;22.60;58.10;;;;;;5093967;28;20028;-77
2023/01/15 09:49:33;;;;;;;5.30;3.30;;;22.40;58.00;;;;;;5093836;28;20043;-77
2023/01/15 09:52:08;;;;;;;5.28;3.25;;;22.40;58.10;;;;;;5093472;28;20480;-77
2023/01/15 09:55:03;;;;;;;3.80;3.13;;;22.20;58.50;;;;;;5074162;28;20020;-77
2023/01/15 09:57:30;;;;;;;5.15;3.28;;;22.30;59.00;;;;;;5071868;28;20024;-77
2023/01/15 10:00:01;;;;;;;4.60;3.38;;;22.10;58.30;;;;;;5093599;28;20071;-77
2023/01/15 10:02:41;;;;;;;5.20;3.28;;;22.30;59.20;;;;;;5075490;28;20035;-77
2023/01/15 10:05:30;;;;;;;3.58;2.90;;;22.20;58.90;;;;;;5057714;28;20064;-77
2023/01/15 10:08:18;;;;;;;5.53;3.25;;;22.10;59.50;;;;;;5050534;28;20092;-77
2023/01/15 10:10:47;;;;;;;5.97;4.05;;;22.10;59.60;;;;;;5049648;28;20164;-77
2023/01/15 10:13:34;;;;;;;5.18;3.70;;;22.10;59.00;;;;;;5050568;28;20041;-77
2023/01/15 10:16:00;;;;;;;5.35;3.30;;;22.00;59.70;;;;;;5050584;28;20079;-77
2023/01/15 10:18:27;;;;;;;4.68;3.60;;;22.00;59.40;;;;;;5050069;28;20036;-77
2023/01/15 10:21:29;;;;;;;5.07;3.33;;;21.90;59.30;;;;;;5047531;28;20043;-77
2023/01/15 10:24:22;;;;;;;5.18;3.42;;;21.90;60.20;;;;;;4970487;28;20046;-77
2023/01/15 10:26:57;;;;;;;5.03;3.35;;;21.80;59.90;;;;;;4954460;28;20039;-77
2023/01/15 10:29:56;;;;;;;7.68;3.58;;;21.80;60.50;;;;;;4969701;28;20046;-77
2023/01/15 10:32:45;;;;;;;5.55;3.78;;;21.70;59.10;;;;;;4971102;28;20869;-77
2023/01/15 10:35:29;;;;;;;4.75;3.17;;;21.80;59.90;;;;;;4971383;28;20097;-77
2023/01/15 10:38:12;;;;;;;4.57;3.22;;;21.60;60.40;;;;;;4971040;28;20049;-77
2023/01/15 10:41:20;;;;;;;4.85;3.40;;;21.60;60.60;;;;;;4970829;28;20054;-76
2023/01/15 10:44:04;;;;;;;5.97;4.20;;;21.70;60.10;;;;;;4971104;28;20035;-76
2023/01/15 10:46:37;;;;;;;4.85;3.47;;;21.60;60.30;;;;;;4990406;28;20535;-76
2023/01/15 10:49:20;;;;;;;7.40;3.83;;;21.60;60.30;;;;;;4989716;28;20085;-77
2023/01/15 10:51:52;;;;;;;8.15;4.20;;;21.70;60.60;;;;;;4988243;28;20525;-77
2023/01/15 10:54:40;;;;;;;5.78;3.90;;;21.70;60.40;;;;;;4990123;28;20097;-77
2023/01/15 10:57:11;;;;;;;7.65;4.80;;;21.60;60.60;;;;;;4989162;28;20030;-77
2023/01/15 10:59:45;;;;;;;5.85;4.05;;;21.50;60.70;;;;;;4992199;28;20037;-77
2023/01/15 11:02:26;;;;;;;4.82;4.00;;;21.60;60.70;;;;;;5089039;28;20067;-77
2023/01/15 11:04:53;;;;;;;5.07;3.63;;;21.60;60.80;;;;;;5092416;28;20055;-77
2023/01/15 11:07:29;;;;;;;5.10;3.75;;;21.70;60.60;;;;;;5091562;28;20036;-77
2023/01/15 11:09:57;;;;;;;7.63;4.25;;;21.60;60.50;;;;;;5090446;28;20052;-77
2023/01/15 11:20:48;;;;;;;6.53;4.18;;;21.40;61.00;;;;;;5092298;28;20043;-77
2023/01/15 11:23:18;;;;;;;5.65;4.38;;;21.40;60.80;;;;;;5074995;28;20024;-76
2023/01/15 11:25:50;;;;;;;8.25;4.80;;;21.30;60.70;;;;;;5091254;28;20047;-77
2023/01/15 11:28:17;;;;;;;4.03;2.28;;;21.30;60.70;;;;;;5058033;28;20539;-77
2023/01/15 11:30:53;;;;;;;7.80;1.80;;;21.40;64.20;;;;;;5053863;28;20040;-76
2023/01/15 11:33:23;;;;;;;4.72;4.18;;;21.80;63.10;;;;;;5071128;28;20111;-79
2023/01/15 11:35:51;;;;;;;5.38;4.20;;;22.10;56.40;;;;;;5073938;28;20032;-81
2023/01/15 11:38:21;;;;;;;6.07;4.43;;;22.10;58.10;;;;;;5092468;28;20032;-79
2023/01/15 11:40:52;;;;;;;15.68;4.60;;;22.20;55.00;;;;;;5091778;28;20491;-80
2023/01/15 11:50:42;;;;;;;5.22;4.22;;;22.60;52.00;;;;;;5072027;28;20366;-79
2023/01/15 11:52:10;;;;;;;5.75;4.50;;;22.30;45.90;;;;;;5071848;28;20107;-76
2023/01/15 11:54:49;;;;;;;7.85;4.13;;;22.40;46.10;;;;;;5072401;28;20081;-77
2023/01/15 11:57:31;;;;;;;6.47;3.78;;;22.40;46.50;;;;;;5089699;28;20146;-76
2023/01/15 11:59:58;;;;;;;6.38;4.10;;;22.40;45.50;;;;;;5077752;28;20030;-77
2023/01/15 12:02:41;;;;;;;6.65;4.65;;;22.30;46.40;;;;;;5080668;28;20033;-76
2023/01/15 12:05:27;;;;;;;8.13;5.70;;;22.40;47.20;;;;;;5077153;28;20046;-78
2023/01/15 12:07:59;;;;;;;5.35;4.47;;;22.40;49.20;;;;;;5087443;28;20021;-77
2023/01/15 12:13:24;;;;;;;6.55;4.70;;;22.30;48.70;;;;;;5079698;28;20082;-78
2023/01/15 12:15:56;;;;;;;7.25;5.05;;;22.30;48.50;;;;;;5091381;28;20043;-79
2023/01/15 12:18:49;;;;;;;7.68;4.13;;;22.30;47.50;;;;;;5071447;28;20060;-75
2023/01/15 12:21:20;;;;;;;6.85;4.07;;;22.40;49.40;;;;;;5071301;28;20349;-75
2023/01/15 12:24:21;;;;;;;8.18;5.05;;;22.60;46.60;;;;;;5078306;28;20039;-76
2023/01/15 12:26:50;;;;;;;7.38;4.80;;;22.80;64.00;;;;;;4977430;28;20046;-76
2023/01/15 12:29:26;;;;;;;7.97;5.32;;;22.80;67.10;;;;;;5004977;28;20061;-76
2023/01/15 12:32:00;;;;;;;7.70;5.05;;;23.10;69.40;;;;;;4991578;28;20057;-78
2023/01/15 12:35:00;;;;;;;8.23;4.85;;;23.10;72.20;;;;;;4984147;28;20475;-76
2023/01/15 12:37:36;;;;;;;6.95;4.72;;;23.20;73.40;;;;;;5008728;28;20074;-77
2023/01/15 12:40:26;;;;;;;8.13;4.60;;;23.50;74.50;;;;;;5013771;28;20041;-77
2023/01/15 12:45:52;;;;;;;10.15;5.55;;;23.40;71.80;;;;;;5009093;28;20030;-76
2023/01/15 12:48:27;;;;;;;7.50;5.18;;;23.60;64.90;;;;;;5003677;28;20061;-78
2023/01/15 12:51:00;;;;;;;8.98;5.00;;;23.60;62.50;;;;;;4996007;28;20807;-76
2023/01/15 12:53:48;;;;;;;7.18;5.05;;;23.40;61.70;;;;;;5011615;28;20065;-78
2023/01/15 12:56:31;;;;;;;8.07;5.15;;;23.30;61.20;;;;;;5014235;28;20056;-78
2023/01/15 12:59:18;;;;;;;8.40;5.00;;;23.20;61.50;;;;;;5006608;28;20140;-79
2023/01/15 13:01:55;;;;;;;8.60;4.78;;;23.20;61.30;;;;;;5004915;28;20036;-76
2023/01/15 13:04:31;;;;;;;7.53;4.55;;;23.10;61.40;;;;;;5045230;28;20489;-78
2023/01/15 13:07:16;;;;;;;8.23;5.20;;;23.10;61.50;;;;;;5087984;28;20050;-76
2023/01/15 13:10:06;;;;;;;6.88;4.45;;;23.10;61.20;;;;;;5084884;28;20063;-76
2023/01/15 13:12:33;;;;;;;7.60;4.55;;;23.00;61.40;;;;;;5075284;28;20044;-77
2023/01/15 13:15:01;;;;;;;7.03;4.70;;;23.00;61.20;;;;;;5084744;28;20032;-77
2023/01/15 13:17:33;;;;;;;7.00;4.10;;;23.10;60.80;;;;;;5088077;28;20089;-76
2023/01/15 13:20:24;;;;;;;8.50;4.53;;;23.10;61.00;;;;;;5085162;28;20055;-77
2023/01/15 13:23:11;;;;;;;6.28;4.55;;;22.90;61.00;;;;;;5059646;28;20115;-76
2023/01/15 13:25:53;;;;;;;6.95;4.57;;;23.00;61.20;;;;;;5074067;28;20488;-77
2023/01/15 13:28:28;;;;;;;7.47;4.13;;;22.80;61.50;;;;;;5081678;28;20109;-77
2023/01/15 13:31:30;;;;;;;8.57;4.95;;;22.80;61.90;;;;;;5086805;28;20054;-77
2023/01/15 13:34:00;;;;;;;6.00;4.45;;;22.70;61.90;;;;;;5090842;28;20110;-77
2023/01/15 13:36:36;;;;;;;7.13;4.25;;;22.80;61.70;;;;;;5063538;28;20032;-78
2023/01/15 13:39:07;;;;;;;7.57;4.47;;;22.90;61.50;;;;;;5062008;28;20028;-79
2023/01/15 13:44:25;;;;;;;7.97;4.82;;;22.70;61.30;;;;;;5084336;28;20028;-79
2023/01/15 13:47:07;;;;;;;5.45;4.28;;;22.70;61.40;;;;;;5075265;28;20405;-78
2023/01/15 13:49:37;;;;;;;9.85;4.80;;;22.90;62.00;;;;;;5087864;28;20492;-79
2023/01/15 13:52:27;;;;;;;5.82;4.00;;;23.00;61.10;;;;;;5073759;28;20039;-79
2023/01/15 13:54:57;;;;;;;7.18;4.72;;;22.90;60.80;;;;;;5056016;28;20082;-79
2023/01/15 13:57:35;;;;;;;7.68;4.75;;;22.90;60.30;;;;;;5080399;28;20032;-79
2023/01/15 14:00:04;;;;;;;7.65;4.93;;;22.80;60.00;;;;;;5072513;28;20052;-79
2023/01/15 14:02:39;;;;;;;7.13;4.95;;;22.80;60.60;;;;;;5093711;28;20086;-79
2023/01/15 14:05:29;;;;;;;8.50;4.75;;;22.70;61.00;;;;;;5075637;28;20035;-79
2023/01/15 14:07:55;;;;;;;7.07;4.95;;;22.60;61.40;;;;;;5093414;28;20035;-78